Terminal Aerodrome Forecast
Issued by NWS

Home | Current Version | Previous Version | Text Only | Print | Product List | Glossary On
Versions: 1 2 3 4 5 6 7 8 9 10 11 12 13 14
764
FTUS46 KMTR 081739
TAFSTS
TAF
KSTS 081739Z 0818/0918 34005KT 5SM -SHRA BR SCT008 BKN015 OVC025
      TEMPO 0818/0820 2SM SHRA BKN008 OVC015
     FM090000 16004KT 6SM BR VCSH BKN012 OVC020
     FM090700 VRB02KT 2SM BR VCSH OVC007
     FM091000 00000KT 1/4SM FG VV003=

USA.gov is the U.S. government's official web portal to all federal, state and local government web resources and services.